sensor_id;sensor_type;location;lat;lon;timestamp;temperature;humidity
48162;DHT22;33950;48.154;16.316;2023-05-06T00:00:56;18.70;83.60
48162;DHT22;33950;48.154;16.316;2023-05-06T00:03:42;18.70;83.00
48162;DHT22;33950;48.154;16.316;2023-05-06T00:06:28;18.80;82.40
48162;DHT22;33950;48.154;16.316;2023-05-06T00:09:14;18.80;82.10
48162;DHT22;33950;48.154;16.316;2023-05-06T00:12:02;18.80;82.10
48162;DHT22;33950;48.154;16.316;2023-05-06T00:14:50;18.80;82.10
48162;DHT22;33950;48.154;16.316;2023-05-06T00:17:36;18.80;82.20
48162;DHT22;33950;48.154;16.316;2023-05-06T00:20:22;18.80;82.70
48162;DHT22;33950;48.154;16.316;2023-05-06T00:23:09;18.80;82.00
48162;DHT22;33950;48.154;16.316;2023-05-06T00:25:55;18.80;82.00
48162;DHT22;33950;48.154;16.316;2023-05-06T00:28:43;18.80;82.00
48162;DHT22;33950;48.154;16.316;2023-05-06T00:31:29;18.70;82.00
48162;DHT22;33950;48.154;16.316;2023-05-06T00:34:15;18.70;82.20
48162;DHT22;33950;48.154;16.316;2023-05-06T00:37:01;18.70;82.80
48162;DHT22;33950;48.154;16.316;2023-05-06T00:39:48;18.60;82.10
48162;DHT22;33950;48.154;16.316;2023-05-06T00:42:34;18.10;83.30
48162;DHT22;33950;48.154;16.316;2023-05-06T00:45:21;17.70;84.50
48162;DHT22;33950;48.154;16.316;2023-05-06T00:48:08;17.20;85.30
48162;DHT22;33950;48.154;16.316;2023-05-06T00:50:54;17.20;85.40
48162;DHT22;33950;48.154;16.316;2023-05-06T00:53:40;17.40;85.00
48162;DHT22;33950;48.154;16.316;2023-05-06T00:56:27;17.60;84.50
48162;DHT22;33950;48.154;16.316;2023-05-06T00:59:14;17.60;84.50
48162;DHT22;33950;48.154;16.316;2023-05-06T01:02:01;17.70;84.20
48162;DHT22;33950;48.154;16.316;2023-05-06T01:04:48;17.80;83.90
48162;DHT22;33950;48.154;16.316;2023-05-06T01:07:40;18.10;83.60
48162;DHT22;33950;48.154;16.316;2023-05-06T01:10:33;18.10;83.90
48162;DHT22;33950;48.154;16.316;2023-05-06T01:13:27;18.10;83.40
48162;DHT22;33950;48.154;16.316;2023-05-06T01:16:17;18.10;83.20
48162;DHT22;33950;48.154;16.316;2023-05-06T01:19:08;18.20;83.50
48162;DHT22;33950;48.154;16.316;2023-05-06T01:22:00;18.30;83.80
48162;DHT22;33950;48.154;16.316;2023-05-06T01:24:48;18.40;83.70
48162;DHT22;33950;48.154;16.316;2023-05-06T01:27:34;18.40;83.60
48162;DHT22;33950;48.154;16.316;2023-05-06T01:30:21;18.50;83.50
48162;DHT22;33950;48.154;16.316;2023-05-06T01:33:13;18.50;83.50
48162;DHT22;33950;48.154;16.316;2023-05-06T01:36:07;18.50;83.50
48162;DHT22;33950;48.154;16.316;2023-05-06T01:38:59;18.40;83.60
48162;DHT22;33950;48.154;16.316;2023-05-06T01:41:49;18.40;83.50
48162;DHT22;33950;48.154;16.316;2023-05-06T01:44:36;18.30;83.70
48162;DHT22;33950;48.154;16.316;2023-05-06T01:47:24;18.30;83.80
48162;DHT22;33950;48.154;16.316;2023-05-06T01:50:10;18.30;84.00
48162;DHT22;33950;48.154;16.316;2023-05-06T01:52:57;18.40;84.00
48162;DHT22;33950;48.154;16.316;2023-05-06T01:55:43;18.40;84.70
48162;DHT22;33950;48.154;16.316;2023-05-06T01:58:31;18.50;84.00
48162;DHT22;33950;48.154;16.316;2023-05-06T02:01:17;18.60;83.80
48162;DHT22;33950;48.154;16.316;2023-05-06T02:04:03;18.60;83.50
48162;DHT22;33950;48.154;16.316;2023-05-06T02:06:49;18.60;83.50
48162;DHT22;33950;48.154;16.316;2023-05-06T02:09:35;18.60;83.50
48162;DHT22;33950;48.154;16.316;2023-05-06T02:12:21;18.50;83.80
48162;DHT22;33950;48.154;16.316;2023-05-06T02:15:10;18.50;83.90
48162;DHT22;33950;48.154;16.316;2023-05-06T02:17:56;18.40;83.90
48162;DHT22;33950;48.154;16.316;2023-05-06T02:20:42;18.40;83.60
48162;DHT22;33950;48.154;16.316;2023-05-06T02:23:28;18.60;83.50
48162;DHT22;33950;48.154;16.316;2023-05-06T02:26:15;18.60;83.20
48162;DHT22;33950;48.154;16.316;2023-05-06T02:29:01;18.60;83.20
48162;DHT22;33950;48.154;16.316;2023-05-06T02:31:49;18.70;83.20
48162;DHT22;33950;48.154;16.316;2023-05-06T02:34:35;18.80;83.10
48162;DHT22;33950;48.154;16.316;2023-05-06T02:37:21;18.90;83.10
48162;DHT22;33950;48.154;16.316;2023-05-06T02:40:08;19.00;83.10
48162;DHT22;33950;48.154;16.316;2023-05-06T02:42:54;19.10;83.00
48162;DHT22;33950;48.154;16.316;2023-05-06T02:45:40;19.10;82.80
48162;DHT22;33950;48.154;16.316;2023-05-06T02:48:28;19.00;83.10
48162;DHT22;33950;48.154;16.316;2023-05-06T02:51:14;19.10;83.10
48162;DHT22;33950;48.154;16.316;2023-05-06T02:54:00;19.10;83.60
48162;DHT22;33950;48.154;16.316;2023-05-06T02:56:47;19.10;83.20
48162;DHT22;33950;48.154;16.316;2023-05-06T02:59:34;19.10;83.20
48162;DHT22;33950;48.154;16.316;2023-05-06T03:02:20;19.10;83.10
48162;DHT22;33950;48.154;16.316;2023-05-06T03:05:08;19.10;83.50
48162;DHT22;33950;48.154;16.316;2023-05-06T03:07:54;19.10;82.90
48162;DHT22;33950;48.154;16.316;2023-05-06T03:10:41;19.00;82.70
48162;DHT22;33950;48.154;16.316;2023-05-06T03:13:27;18.90;82.70
48162;DHT22;33950;48.154;16.316;2023-05-06T03:16:13;18.80;82.80
48162;DHT22;33950;48.154;16.316;2023-05-06T03:18:59;18.80;82.90
48162;DHT22;33950;48.154;16.316;2023-05-06T03:21:48;18.80;83.00
48162;DHT22;33950;48.154;16.316;2023-05-06T03:24:34;18.80;83.10
48162;DHT22;33950;48.154;16.316;2023-05-06T03:27:20;18.70;83.10
48162;DHT22;33950;48.154;16.316;2023-05-06T03:30:07;18.80;83.10
48162;DHT22;33950;48.154;16.316;2023-05-06T03:32:54;18.70;83.40
48162;DHT22;33950;48.154;16.316;2023-05-06T03:35:40;18.60;83.70
48162;DHT22;33950;48.154;16.316;2023-05-06T03:38:28;18.50;83.90
48162;DHT22;33950;48.154;16.316;2023-05-06T03:41:14;18.50;83.90
48162;DHT22;33950;48.154;16.316;2023-05-06T03:44:00;18.60;83.90
48162;DHT22;33950;48.154;16.316;2023-05-06T03:46:46;18.70;84.00
48162;DHT22;33950;48.154;16.316;2023-05-06T03:49:32;18.70;83.90
48162;DHT22;33950;48.154;16.316;2023-05-06T03:52:19;18.60;84.30
48162;DHT22;33950;48.154;16.316;2023-05-06T03:55:07;18.50;84.40
48162;DHT22;33950;48.154;16.316;2023-05-06T03:57:53;18.50;84.60
48162;DHT22;33950;48.154;16.316;2023-05-06T04:00:39;18.40;84.60
48162;DHT22;33950;48.154;16.316;2023-05-06T04:03:25;18.40;84.80
48162;DHT22;33950;48.154;16.316;2023-05-06T04:06:11;18.40;84.90
48162;DHT22;33950;48.154;16.316;2023-05-06T04:08:57;18.50;85.40
48162;DHT22;33950;48.154;16.316;2023-05-06T04:11:45;18.50;85.00
48162;DHT22;33950;48.154;16.316;2023-05-06T04:14:31;18.50;84.90
48162;DHT22;33950;48.154;16.316;2023-05-06T04:17:17;18.40;85.00
48162;DHT22;33950;48.154;16.316;2023-05-06T04:20:04;18.40;85.10
48162;DHT22;33950;48.154;16.316;2023-05-06T04:22:51;18.40;85.20
48162;DHT22;33950;48.154;16.316;2023-05-06T04:25:38;18.30;85.40
48162;DHT22;33950;48.154;16.316;2023-05-06T04:28:25;18.30;85.40
48162;DHT22;33950;48.154;16.316;2023-05-06T04:31:11;18.30;85.40
48162;DHT22;33950;48.154;16.316;2023-05-06T04:33:59;18.40;85.30
48162;DHT22;33950;48.154;16.316;2023-05-06T04:36:45;18.40;85.30
48162;DHT22;33950;48.154;16.316;2023-05-06T04:39:34;18.50;85.30
48162;DHT22;33950;48.154;16.316;2023-05-06T04:42:24;18.50;85.20
48162;DHT22;33950;48.154;16.316;2023-05-06T04:45:11;18.50;85.30
48162;DHT22;33950;48.154;16.316;2023-05-06T04:47:57;18.50;85.20
48162;DHT22;33950;48.154;16.316;2023-05-06T04:50:44;18.60;86.00
48162;DHT22;33950;48.154;16.316;2023-05-06T04:53:30;18.70;85.30
48162;DHT22;33950;48.154;16.316;2023-05-06T04:56:16;18.80;85.90
48162;DHT22;33950;48.154;16.316;2023-05-06T04:59:04;18.90;86.00
48162;DHT22;33950;48.154;16.316;2023-05-06T05:01:54;18.90;86.00
48162;DHT22;33950;48.154;16.316;2023-05-06T05:04:40;19.00;86.10
48162;DHT22;33950;48.154;16.316;2023-05-06T05:07:26;19.00;86.20
48162;DHT22;33950;48.154;16.316;2023-05-06T05:10:13;19.10;87.10
48162;DHT22;33950;48.154;16.316;2023-05-06T05:12:59;19.00;86.70
48162;DHT22;33950;48.154;16.316;2023-05-06T05:15:45;19.00;86.30
48162;DHT22;33950;48.154;16.316;2023-05-06T05:18:32;18.90;86.60
48162;DHT22;33950;48.154;16.316;2023-05-06T05:21:18;19.00;87.50
48162;DHT22;33950;48.154;16.316;2023-05-06T05:24:06;19.00;87.40
48162;DHT22;33950;48.154;16.316;2023-05-06T05:26:52;19.00;87.30
48162;DHT22;33950;48.154;16.316;2023-05-06T05:29:38;19.10;88.00
48162;DHT22;33950;48.154;16.316;2023-05-06T05:32:24;19.10;88.10
48162;DHT22;33950;48.154;16.316;2023-05-06T05:35:11;19.10;88.30
48162;DHT22;33950;48.154;16.316;2023-05-06T05:37:58;19.00;88.50
48162;DHT22;33950;48.154;16.316;2023-05-06T05:40:44;18.80;89.50
48162;DHT22;33950;48.154;16.316;2023-05-06T05:43:30;18.70;90.10
48162;DHT22;33950;48.154;16.316;2023-05-06T05:46:16;18.70;90.00
48162;DHT22;33950;48.154;16.316;2023-05-06T05:49:02;18.60;89.60
48162;DHT22;33950;48.154;16.316;2023-05-06T05:51:50;18.50;90.00
48162;DHT22;33950;48.154;16.316;2023-05-06T05:54:36;18.40;90.00
48162;DHT22;33950;48.154;16.316;2023-05-06T05:57:22;18.40;89.70
48162;DHT22;33950;48.154;16.316;2023-05-06T06:00:09;18.40;89.90
48162;DHT22;33950;48.154;16.316;2023-05-06T06:02:56;18.50;89.60
48162;DHT22;33950;48.154;16.316;2023-05-06T06:05:44;18.50;90.00
48162;DHT22;33950;48.154;16.316;2023-05-06T06:08:33;18.60;90.10
48162;DHT22;33950;48.154;16.316;2023-05-06T06:11:19;18.70;89.90
48162;DHT22;33950;48.154;16.316;2023-05-06T06:14:06;18.80;90.10
48162;DHT22;33950;48.154;16.316;2023-05-06T06:16:52;18.80;89.90
48162;DHT22;33950;48.154;16.316;2023-05-06T06:19:38;18.80;90.00
48162;DHT22;33950;48.154;16.316;2023-05-06T06:22:24;18.80;90.00
48162;DHT22;33950;48.154;16.316;2023-05-06T06:25:12;18.90;90.20
48162;DHT22;33950;48.154;16.316;2023-05-06T06:27:58;18.90;90.10
48162;DHT22;33950;48.154;16.316;2023-05-06T06:30:44;19.00;89.60
48162;DHT22;33950;48.154;16.316;2023-05-06T06:33:31;18.90;89.00
48162;DHT22;33950;48.154;16.316;2023-05-06T06:36:17;18.80;88.90
48162;DHT22;33950;48.154;16.316;2023-05-06T06:39:03;18.80;88.90
48162;DHT22;33950;48.154;16.316;2023-05-06T06:41:51;18.90;88.70
48162;DHT22;33950;48.154;16.316;2023-05-06T06:44:37;18.90;88.50
48162;DHT22;33950;48.154;16.316;2023-05-06T06:47:23;18.90;88.30
48162;DHT22;33950;48.154;16.316;2023-05-06T06:50:09;18.90;88.30
48162;DHT22;33950;48.154;16.316;2023-05-06T06:52:56;19.00;88.80
48162;DHT22;33950;48.154;16.316;2023-05-06T06:55:42;19.20;89.00
48162;DHT22;33950;48.154;16.316;2023-05-06T06:58:33;19.30;89.00
48162;DHT22;33950;48.154;16.316;2023-05-06T07:01:19;19.30;88.20
48162;DHT22;33950;48.154;16.316;2023-05-06T07:04:06;19.30;88.80
48162;DHT22;33950;48.154;16.316;2023-05-06T07:06:52;19.40;88.10
48162;DHT22;33950;48.154;16.316;2023-05-06T07:09:38;19.30;88.10
48162;DHT22;33950;48.154;16.316;2023-05-06T07:12:24;19.40;87.70
48162;DHT22;33950;48.154;16.316;2023-05-06T07:15:13;19.60;87.40
48162;DHT22;33950;48.154;16.316;2023-05-06T07:17:59;19.80;87.20
48162;DHT22;33950;48.154;16.316;2023-05-06T07:20:47;19.90;87.20
48162;DHT22;33950;48.154;16.316;2023-05-06T07:23:33;20.10;86.90
48162;DHT22;33950;48.154;16.316;2023-05-06T07:26:19;20.20;86.00
48162;DHT22;33950;48.154;16.316;2023-05-06T07:29:06;20.30;85.40
48162;DHT22;33950;48.154;16.316;2023-05-06T07:31:56;20.40;85.20
48162;DHT22;33950;48.154;16.316;2023-05-06T07:34:42;20.40;85.00
48162;DHT22;33950;48.154;16.316;2023-05-06T07:37:28;20.40;84.90
48162;DHT22;33950;48.154;16.316;2023-05-06T07:40:14;20.50;84.80
48162;DHT22;33950;48.154;16.316;2023-05-06T07:43:01;20.50;84.80
48162;DHT22;33950;48.154;16.316;2023-05-06T07:45:47;20.50;84.90
48162;DHT22;33950;48.154;16.316;2023-05-06T07:48:35;20.50;84.30
48162;DHT22;33950;48.154;16.316;2023-05-06T07:51:21;20.60;84.90
48162;DHT22;33950;48.154;16.316;2023-05-06T07:54:07;20.60;84.40
48162;DHT22;33950;48.154;16.316;2023-05-06T07:56:53;20.60;84.20
48162;DHT22;33950;48.154;16.316;2023-05-06T07:59:39;20.60;84.20
48162;DHT22;33950;48.154;16.316;2023-05-06T08:02:25;20.50;83.60
48162;DHT22;33950;48.154;16.316;2023-05-06T08:05:13;20.30;83.80
48162;DHT22;33950;48.154;16.316;2023-05-06T08:07:59;20.10;84.00
48162;DHT22;33950;48.154;16.316;2023-05-06T08:10:46;19.90;84.40
48162;DHT22;33950;48.154;16.316;2023-05-06T08:13:32;20.00;85.00
48162;DHT22;33950;48.154;16.316;2023-05-06T08:16:18;19.90;84.40
48162;DHT22;33950;48.154;16.316;2023-05-06T08:19:04;20.00;85.00
48162;DHT22;33950;48.154;16.316;2023-05-06T08:21:51;20.20;84.80
48162;DHT22;33950;48.154;16.316;2023-05-06T08:24:38;20.40;85.20
48162;DHT22;33950;48.154;16.316;2023-05-06T08:27:24;20.60;84.70
48162;DHT22;33950;48.154;16.316;2023-05-06T08:30:11;20.50;83.90
48162;DHT22;33950;48.154;16.316;2023-05-06T08:32:57;20.40;84.60
48162;DHT22;33950;48.154;16.316;2023-05-06T08:35:43;20.40;83.70
48162;DHT22;33950;48.154;16.316;2023-05-06T08:38:31;20.40;83.90
48162;DHT22;33950;48.154;16.316;2023-05-06T08:41:18;20.30;83.40
48162;DHT22;33950;48.154;16.316;2023-05-06T08:44:07;20.40;83.90
48162;DHT22;33950;48.154;16.316;2023-05-06T08:46:53;20.50;84.20
48162;DHT22;33950;48.154;16.316;2023-05-06T08:49:40;20.70;83.60
48162;DHT22;33950;48.154;16.316;2023-05-06T08:52:26;20.90;83.80
48162;DHT22;33950;48.154;16.316;2023-05-06T08:55:15;20.90;82.40
48162;DHT22;33950;48.154;16.316;2023-05-06T08:58:02;20.80;82.60
48162;DHT22;33950;48.154;16.316;2023-05-06T09:00:50;20.70;82.00
48162;DHT22;33950;48.154;16.316;2023-05-06T09:03:36;20.60;82.10
48162;DHT22;33950;48.154;16.316;2023-05-06T09:06:23;20.60;82.10
48162;DHT22;33950;48.154;16.316;2023-05-06T09:09:09;20.60;82.20
48162;DHT22;33950;48.154;16.316;2023-05-06T09:11:59;20.60;82.20
48162;DHT22;33950;48.154;16.316;2023-05-06T09:14:48;20.60;81.80
48162;DHT22;33950;48.154;16.316;2023-05-06T09:17:35;20.70;82.30
48162;DHT22;33950;48.154;16.316;2023-05-06T09:20:21;20.80;82.10
48162;DHT22;33950;48.154;16.316;2023-05-06T09:23:08;20.90;82.20
48162;DHT22;33950;48.154;16.316;2023-05-06T09:25:56;21.00;82.30
48162;DHT22;33950;48.154;16.316;2023-05-06T09:28:45;21.00;81.80
48162;DHT22;33950;48.154;16.316;2023-05-06T09:31:32;21.00;82.10
48162;DHT22;33950;48.154;16.316;2023-05-06T09:34:18;21.00;81.90
48162;DHT22;33950;48.154;16.316;2023-05-06T09:37:05;21.10;81.10
48162;DHT22;33950;48.154;16.316;2023-05-06T09:39:53;21.10;81.50
48162;DHT22;33950;48.154;16.316;2023-05-06T09:42:42;21.10;81.70
48162;DHT22;33950;48.154;16.316;2023-05-06T09:45:30;21.10;81.90
48162;DHT22;33950;48.154;16.316;2023-05-06T09:48:17;21.00;82.00
48162;DHT22;33950;48.154;16.316;2023-05-06T09:51:04;21.00;81.70
48162;DHT22;33950;48.154;16.316;2023-05-06T09:53:53;21.00;81.30
48162;DHT22;33950;48.154;16.316;2023-05-06T09:56:40;21.00;81.70
48162;DHT22;33950;48.154;16.316;2023-05-06T09:59:31;21.20;82.00
48162;DHT22;33950;48.154;16.316;2023-05-06T10:02:19;21.30;81.90
48162;DHT22;33950;48.154;16.316;2023-05-06T10:05:08;21.30;81.80
48162;DHT22;33950;48.154;16.316;2023-05-06T10:07:55;21.50;81.10
48162;DHT22;33950;48.154;16.316;2023-05-06T10:10:48;21.50;80.40
48162;DHT22;33950;48.154;16.316;2023-05-06T10:13:35;21.50;80.60
48162;DHT22;33950;48.154;16.316;2023-05-06T10:16:23;21.40;80.80
48162;DHT22;33950;48.154;16.316;2023-05-06T10:19:13;21.70;80.70
48162;DHT22;33950;48.154;16.316;2023-05-06T10:22:09;21.80;80.70
48162;DHT22;33950;48.154;16.316;2023-05-06T10:24:58;21.80;79.90
48162;DHT22;33950;48.154;16.316;2023-05-06T10:27:48;21.90;79.80
48162;DHT22;33950;48.154;16.316;2023-05-06T10:30:37;21.80;80.00
48162;DHT22;33950;48.154;16.316;2023-05-06T10:33:24;21.70;80.20
48162;DHT22;33950;48.154;16.316;2023-05-06T10:36:15;22.00;79.70
48162;DHT22;33950;48.154;16.316;2023-05-06T10:39:02;22.10;79.50
48162;DHT22;33950;48.154;16.316;2023-05-06T10:41:49;22.20;79.60
48162;DHT22;33950;48.154;16.316;2023-05-06T10:44:54;22.40;79.90
48162;DHT22;33950;48.154;16.316;2023-05-06T10:48:05;23.20;79.00
48162;DHT22;33950;48.154;16.316;2023-05-06T10:51:22;23.90;78.20
48162;DHT22;33950;48.154;16.316;2023-05-06T10:54:09;24.30;76.70
48162;DHT22;33950;48.154;16.316;2023-05-06T10:57:09;24.00;76.10
48162;DHT22;33950;48.154;16.316;2023-05-06T10:59:58;24.00;77.10
48162;DHT22;33950;48.154;16.316;2023-05-06T11:02:44;24.50;75.90
48162;DHT22;33950;48.154;16.316;2023-05-06T11:05:45;24.40;74.10
48162;DHT22;33950;48.154;16.316;2023-05-06T11:08:34;24.50;74.90
48162;DHT22;33950;48.154;16.316;2023-05-06T11:11:45;25.00;74.20
48162;DHT22;33950;48.154;16.316;2023-05-06T11:14:32;25.40;73.80
48162;DHT22;33950;48.154;16.316;2023-05-06T11:17:29;25.20;73.10
48162;DHT22;33950;48.154;16.316;2023-05-06T11:20:20;24.90;73.80
48162;DHT22;33950;48.154;16.316;2023-05-06T11:23:06;25.20;73.00
48162;DHT22;33950;48.154;16.316;2023-05-06T11:25:54;25.60;71.30
48162;DHT22;33950;48.154;16.316;2023-05-06T11:28:44;25.70;70.40
48162;DHT22;33950;48.154;16.316;2023-05-06T11:31:38;25.10;71.00
48162;DHT22;33950;48.154;16.316;2023-05-06T11:34:25;24.60;72.10
48162;DHT22;33950;48.154;16.316;2023-05-06T11:37:12;24.20;73.50
48162;DHT22;33950;48.154;16.316;2023-05-06T11:40:13;24.10;72.60
48162;DHT22;33950;48.154;16.316;2023-05-06T11:43:11;23.90;72.30
48162;DHT22;33950;48.154;16.316;2023-05-06T11:45:58;24.20;72.30
48162;DHT22;33950;48.154;16.316;2023-05-06T11:48:44;25.00;71.60
48162;DHT22;33950;48.154;16.316;2023-05-06T11:51:30;25.60;71.20
48162;DHT22;33950;48.154;16.316;2023-05-06T11:54:18;25.70;70.00
48162;DHT22;33950;48.154;16.316;2023-05-06T11:57:07;26.00;70.90
48162;DHT22;33950;48.154;16.316;2023-05-06T11:59:55;26.00;71.00
48162;DHT22;33950;48.154;16.316;2023-05-06T12:02:41;25.70;71.30
48162;DHT22;33950;48.154;16.316;2023-05-06T12:05:27;25.40;70.90
48162;DHT22;33950;48.154;16.316;2023-05-06T12:08:14;25.20;71.20
48162;DHT22;33950;48.154;16.316;2023-05-06T12:11:12;25.40;72.00
48162;DHT22;33950;48.154;16.316;2023-05-06T12:14:04;26.30;71.70
48162;DHT22;33950;48.154;16.316;2023-05-06T12:16:51;27.00;70.30
48162;DHT22;33950;48.154;16.316;2023-05-06T12:19:38;26.80;70.20
48162;DHT22;33950;48.154;16.316;2023-05-06T12:22:24;27.20;71.00
48162;DHT22;33950;48.154;16.316;2023-05-06T12:25:14;27.60;69.80
48162;DHT22;33950;48.154;16.316;2023-05-06T12:30:47;27.90;67.90
48162;DHT22;33950;48.154;16.316;2023-05-06T12:33:44;28.10;66.50
48162;DHT22;33950;48.154;16.316;2023-05-06T12:36:31;28.10;67.40
48162;DHT22;33950;48.154;16.316;2023-05-06T12:42:04;26.10;70.60
48162;DHT22;33950;48.154;16.316;2023-05-06T12:44:50;26.00;71.90
48162;DHT22;33950;48.154;16.316;2023-05-06T12:47:36;26.20;72.70
48162;DHT22;33950;48.154;16.316;2023-05-06T12:50:38;26.90;72.70
48162;DHT22;33950;48.154;16.316;2023-05-06T12:53:32;26.60;72.10
48162;DHT22;33950;48.154;16.316;2023-05-06T12:59:06;26.90;71.50
48162;DHT22;33950;48.154;16.316;2023-05-06T13:01:52;26.60;71.50
48162;DHT22;33950;48.154;16.316;2023-05-06T13:04:38;26.30;71.20
48162;DHT22;33950;48.154;16.316;2023-05-06T13:07:26;26.70;71.10
48162;DHT22;33950;48.154;16.316;2023-05-06T13:10:13;27.00;71.20
48162;DHT22;33950;48.154;16.316;2023-05-06T13:12:59;27.00;72.10
48162;DHT22;33950;48.154;16.316;2023-05-06T13:21:18;28.80;68.70
48162;DHT22;33950;48.154;16.316;2023-05-06T13:24:06;28.80;69.60
48162;DHT22;33950;48.154;16.316;2023-05-06T13:26:55;28.60;70.60
48162;DHT22;33950;48.154;16.316;2023-05-06T13:29:41;28.40;70.00
48162;DHT22;33950;48.154;16.316;2023-05-06T13:32:27;27.90;70.60
48162;DHT22;33950;48.154;16.316;2023-05-06T13:35:14;27.50;71.00
48162;DHT22;33950;48.154;16.316;2023-05-06T13:38:00;27.20;71.20
48162;DHT22;33950;48.154;16.316;2023-05-06T13:40:49;26.90;71.90
48162;DHT22;33950;48.154;16.316;2023-05-06T13:43:36;26.70;72.30
48162;DHT22;33950;48.154;16.316;2023-05-06T13:46:24;26.70;72.80
48162;DHT22;33950;48.154;16.316;2023-05-06T13:49:12;26.50;72.20
48162;DHT22;33950;48.154;16.316;2023-05-06T13:51:58;26.60;72.80
48162;DHT22;33950;48.154;16.316;2023-05-06T13:54:44;26.50;72.70
48162;DHT22;33950;48.154;16.316;2023-05-06T13:57:33;26.20;72.30
48162;DHT22;33950;48.154;16.316;2023-05-06T14:00:20;25.90;73.70
48162;DHT22;33950;48.154;16.316;2023-05-06T14:03:06;25.70;73.40
48162;DHT22;33950;48.154;16.316;2023-05-06T14:05:52;25.60;73.90
48162;DHT22;33950;48.154;16.316;2023-05-06T14:08:38;25.40;74.00
48162;DHT22;33950;48.154;16.316;2023-05-06T14:11:25;25.30;74.90
48162;DHT22;33950;48.154;16.316;2023-05-06T14:14:12;25.20;75.00
48162;DHT22;33950;48.154;16.316;2023-05-06T14:16:58;24.70;75.00
48162;DHT22;33950;48.154;16.316;2023-05-06T14:19:46;24.30;74.80
48162;DHT22;33950;48.154;16.316;2023-05-06T14:22:32;23.70;74.20
48162;DHT22;33950;48.154;16.316;2023-05-06T14:25:18;23.70;74.50
48162;DHT22;33950;48.154;16.316;2023-05-06T14:28:06;24.10;74.20
48162;DHT22;33950;48.154;16.316;2023-05-06T14:30:53;24.20;73.60
48162;DHT22;33950;48.154;16.316;2023-05-06T14:33:40;24.00;73.30
48162;DHT22;33950;48.154;16.316;2023-05-06T14:36:26;24.00;74.20
48162;DHT22;33950;48.154;16.316;2023-05-06T14:39:15;24.20;73.80
48162;DHT22;33950;48.154;16.316;2023-05-06T14:42:01;24.00;73.70
48162;DHT22;33950;48.154;16.316;2023-05-06T14:44:47;24.00;73.80
48162;DHT22;33950;48.154;16.316;2023-05-06T14:47:39;24.40;74.10
48162;DHT22;33950;48.154;16.316;2023-05-06T14:50:25;24.70;72.70
48162;DHT22;33950;48.154;16.316;2023-05-06T14:53:11;24.70;73.60
48162;DHT22;33950;48.154;16.316;2023-05-06T14:55:57;24.90;73.60
48162;DHT22;33950;48.154;16.316;2023-05-06T14:58:44;25.30;72.70
48162;DHT22;33950;48.154;16.316;2023-05-06T15:01:30;25.40;72.00
48162;DHT22;33950;48.154;16.316;2023-05-06T15:04:19;24.80;73.50
48162;DHT22;33950;48.154;16.316;2023-05-06T15:07:06;24.60;73.30
48162;DHT22;33950;48.154;16.316;2023-05-06T15:09:53;24.60;73.00
48162;DHT22;33950;48.154;16.316;2023-05-06T15:12:39;24.80;73.40
48162;DHT22;33950;48.154;16.316;2023-05-06T15:15:25;25.10;73.20
48162;DHT22;33950;48.154;16.316;2023-05-06T15:18:11;25.20;73.00
48162;DHT22;33950;48.154;16.316;2023-05-06T15:20:59;25.10;72.40
48162;DHT22;33950;48.154;16.316;2023-05-06T15:23:46;25.20;71.00
48162;DHT22;33950;48.154;16.316;2023-05-06T15:26:32;25.00;72.30
48162;DHT22;33950;48.154;16.316;2023-05-06T15:29:18;24.90;72.50
48162;DHT22;33950;48.154;16.316;2023-05-06T15:32:05;24.90;73.00
48162;DHT22;33950;48.154;16.316;2023-05-06T15:34:51;25.00;73.70
48162;DHT22;33950;48.154;16.316;2023-05-06T15:37:39;25.10;74.40
48162;DHT22;33950;48.154;16.316;2023-05-06T15:40:25;25.00;74.40
48162;DHT22;33950;48.154;16.316;2023-05-06T15:43:11;25.10;74.40
48162;DHT22;33950;48.154;16.316;2023-05-06T15:45:57;24.80;74.50
48162;DHT22;33950;48.154;16.316;2023-05-06T15:48:43;24.90;74.40
48162;DHT22;33950;48.154;16.316;2023-05-06T15:51:30;24.70;74.70
48162;DHT22;33950;48.154;16.316;2023-05-06T15:54:17;24.60;74.40
48162;DHT22;33950;48.154;16.316;2023-05-06T15:57:03;24.60;74.20
48162;DHT22;33950;48.154;16.316;2023-05-06T15:59:49;24.80;74.10
48162;DHT22;33950;48.154;16.316;2023-05-06T16:02:35;25.00;74.10
48162;DHT22;33950;48.154;16.316;2023-05-06T16:05:22;24.90;73.50
48162;DHT22;33950;48.154;16.316;2023-05-06T16:08:08;24.80;73.50
48162;DHT22;33950;48.154;16.316;2023-05-06T16:10:55;24.70;73.90
48162;DHT22;33950;48.154;16.316;2023-05-06T16:13:41;24.70;73.60
48162;DHT22;33950;48.154;16.316;2023-05-06T16:16:28;24.80;73.80
48162;DHT22;33950;48.154;16.316;2023-05-06T16:19:14;24.80;74.80
48162;DHT22;33950;48.154;16.316;2023-05-06T16:22:05;24.60;74.90
48162;DHT22;33950;48.154;16.316;2023-05-06T16:24:52;24.60;75.10
48162;DHT22;33950;48.154;16.316;2023-05-06T16:27:39;24.60;75.10
48162;DHT22;33950;48.154;16.316;2023-05-06T16:30:26;24.40;75.20
48162;DHT22;33950;48.154;16.316;2023-05-06T16:33:12;24.40;75.90
48162;DHT22;33950;48.154;16.316;2023-05-06T16:35:59;24.10;75.50
48162;DHT22;33950;48.154;16.316;2023-05-06T16:38:45;24.00;76.20
48162;DHT22;33950;48.154;16.316;2023-05-06T16:41:31;23.80;76.60
48162;DHT22;33950;48.154;16.316;2023-05-06T16:44:19;23.60;77.00
48162;DHT22;33950;48.154;16.316;2023-05-06T16:47:05;23.50;77.10
48162;DHT22;33950;48.154;16.316;2023-05-06T16:49:51;23.40;77.40
48162;DHT22;33950;48.154;16.316;2023-05-06T16:52:37;23.30;77.50
48162;DHT22;33950;48.154;16.316;2023-05-06T16:55:23;23.20;77.80
48162;DHT22;33950;48.154;16.316;2023-05-06T16:58:09;23.00;77.60
48162;DHT22;33950;48.154;16.316;2023-05-06T17:00:57;22.90;77.10
48162;DHT22;33950;48.154;16.316;2023-05-06T17:03:43;22.90;77.10
48162;DHT22;33950;48.154;16.316;2023-05-06T17:06:30;22.90;77.10
48162;DHT22;33950;48.154;16.316;2023-05-06T17:09:20;22.70;78.40
48162;DHT22;33950;48.154;16.316;2023-05-06T17:12:06;22.50;81.10
48162;DHT22;33950;48.154;16.316;2023-05-06T17:14:52;22.20;85.70
48162;DHT22;33950;48.154;16.316;2023-05-06T17:17:40;21.80;87.20
48162;DHT22;33950;48.154;16.316;2023-05-06T17:20:26;21.40;89.20
48162;DHT22;33950;48.154;16.316;2023-05-06T17:23:12;21.30;90.20
48162;DHT22;33950;48.154;16.316;2023-05-06T17:25:58;21.10;90.30
48162;DHT22;33950;48.154;16.316;2023-05-06T17:28:44;20.80;90.20
48162;DHT22;33950;48.154;16.316;2023-05-06T17:31:34;20.50;90.40
48162;DHT22;33950;48.154;16.316;2023-05-06T17:34:28;20.30;92.00